Washington, DC

5:09 AM EST on January 22, 2017 (GMT -0500)
Logan Circle | | Change Station
Active Advisory: Small Craft Advisory

Elev 108 ft 38.91 °N, 77.03 °W | Updated 15 seconds ago

Fog
Fog
45.9 °F
Feels Like 46 °F
N
0.0
Wind Variable Wind from NE
Gusts 0.0 mph

Today
High -- | Low -- °F
--% Chance of Precip.
Yesterday
High -- | Low -- °F
Precip. -- in
Pressure 29.70 in
Visibility 0.1 miles
Clouds
Windchill 46 °F
Dew Point 46 °F
Humidity 99%
Rainfall 0.00 in
Snow Depth Not available.
7:21 AM 5:18 PM
Waning Crescent, 27% visible
SPECI KDCA 220959Z 05005KT 1/8SM R01/P6000FT FG VV003 08/08 A2970 RMK AO2 T00830083 $
Pressure 29.70 in
Visibility 0.1 miles
Clouds
Windchill 46 °F
Dew Point 46 °F
Humidity 99%
Rainfall 0.00 in
Snow Depth Not available.
7:21 AM 5:18 PM
Waning Crescent, 27% visible
SPECI KDCA 220959Z 05005KT 1/8SM R01/P6000FT FG VV003 08/08 A2970 RMK AO2 T00830083 $

Get Your Daily Forecast Email!

Thanks for signing up!

Be on the lookout for a verification email in your inbox.

You'll start receiving the daily forecast at 8 AM.

×

10-Day Weather Forecast

Almanac

Astronomy

Jan. 22, 2017 Rise Set
Actual Time
Civil Twilight
Nautical Twilight
Astronomical Twilight
Moon
Length of Visible Light
Length of Day
Tomorrow will be .
, % of the Moon is Illuminated

Today's Extremes

State Highs State Lows

Community

WunderPhotos

Upload Photos

1,962,540 photos uploaded!

WunderBlog® & News

Nearby

Air Quality

  Air Quality AQ Index Pollutant
Not available.

Snow Depth

Station Depth Elevation

Earthquake Activity

City Distance Mag. Time & Date
Minimum magnitude displayed is 2.5.

Coastal Water Temperatures

Place Temperature

Stations

Nearby Weather Stations

Station Location Temp. Windchill Dew Point Humidity Wind Precip. Elev Updated Type
                   

Watches & Warnings

Small Craft Advisory
Issued: 3:18 AM EST Jan. 22, 2017 – National Weather Service

... Small Craft Advisory remains in effect from 6 PM this evening
to 1 PM EST Monday...

* winds... 18 to 33 knots within the Small Craft Advisory.

Precautionary/preparedness actions...

A Small Craft Advisory means winds of 18 to 33 knots are imminent
or occurring. Boaters operating smaller vessels should avoid
navigating in these conditions.